createdAt,value
2023-01-23T00:00:26.154Z,11.74
2023-01-23T00:02:52.410Z,11.67
2023-01-23T00:05:18.688Z,11.54
2023-01-23T00:07:44.957Z,11.57
2023-01-23T00:10:11.219Z,12.20
2023-01-23T00:12:37.470Z,12.24
2023-01-23T00:15:05.919Z,12.63
2023-01-23T00:17:32.865Z,12.82
2023-01-23T00:19:59.131Z,12.24
2023-01-23T00:22:25.411Z,12.27
2023-01-23T00:24:51.681Z,12.68
2023-01-23T00:27:17.933Z,12.16
2023-01-23T00:29:44.186Z,12.00
2023-01-23T00:32:10.436Z,11.67
2023-01-23T00:34:36.712Z,12.19
2023-01-23T00:37:02.991Z,12.49
2023-01-23T00:39:29.256Z,12.00
2023-01-23T00:41:55.537Z,12.95
2023-01-23T00:44:21.816Z,12.54
2023-01-23T00:46:48.151Z,13.01
2023-01-23T00:49:14.444Z,13.03
2023-01-23T00:51:40.708Z,12.85
2023-01-23T00:54:06.955Z,13.35
2023-01-23T00:56:33.212Z,13.41
2023-01-23T00:58:59.489Z,13.65
2023-01-23T01:01:25.759Z,13.55
2023-01-23T01:03:52.033Z,13.22
2023-01-23T01:06:18.279Z,13.25
2023-01-23T01:08:44.528Z,13.26
2023-01-23T01:11:10.785Z,13.39
2023-01-23T01:13:37.078Z,13.66
2023-01-23T01:16:03.406Z,13.36
2023-01-23T01:18:29.721Z,13.73
2023-01-23T01:20:56.010Z,13.02
2023-01-23T01:23:22.376Z,13.28
2023-01-23T01:25:48.651Z,13.84
2023-01-23T01:28:14.901Z,13.71
2023-01-23T01:30:41.203Z,13.93
2023-01-23T01:33:07.514Z,13.49
2023-01-23T01:35:33.772Z,13.22
2023-01-23T01:38:00.056Z,12.88
2023-01-23T01:40:26.396Z,13.84
2023-01-23T01:42:52.638Z,13.79
2023-01-23T01:45:18.878Z,14.24
2023-01-23T01:47:45.221Z,13.54
2023-01-23T01:50:12.347Z,13.64
2023-01-23T01:52:38.720Z,13.82
2023-01-23T01:55:04.988Z,13.57
2023-01-23T01:57:31.244Z,13.57
2023-01-23T01:59:57.532Z,13.91
2023-01-23T02:02:23.885Z,13.25
2023-01-23T02:04:50.192Z,13.67
2023-01-23T02:07:16.445Z,13.44
2023-01-23T02:09:42.729Z,13.36
2023-01-23T02:12:08.992Z,13.29
2023-01-23T02:14:35.247Z,13.34
2023-01-23T02:17:01.495Z,13.07
2023-01-23T02:19:27.776Z,13.23
2023-01-23T02:21:54.038Z,12.99
2023-01-23T02:24:20.402Z,13.09
2023-01-23T02:26:46.643Z,12.44
2023-01-23T02:29:13.073Z,12.16
2023-01-23T02:31:39.479Z,12.37
2023-01-23T02:34:05.774Z,12.95
2023-01-23T02:36:32.036Z,12.26
2023-01-23T02:38:58.345Z,12.64
2023-01-23T02:41:24.630Z,12.77
2023-01-23T02:43:50.887Z,12.87
2023-01-23T02:46:17.159Z,13.07
2023-01-23T02:48:43.402Z,13.08
2023-01-23T02:51:09.710Z,13.09
2023-01-23T02:53:35.999Z,13.06
2023-01-23T02:56:02.283Z,13.64
2023-01-23T02:58:28.536Z,13.54
2023-01-23T03:00:54.836Z,13.45
2023-01-23T03:03:21.082Z,13.59
2023-01-23T03:05:47.364Z,13.30
2023-01-23T03:08:13.661Z,13.17
2023-01-23T03:10:39.925Z,13.16
2023-01-23T03:13:06.198Z,12.55
2023-01-23T03:15:32.454Z,12.08
2023-01-23T03:17:58.715Z,11.99
2023-01-23T03:20:25.024Z,11.39
2023-01-23T03:22:51.287Z,11.88
2023-01-23T03:25:17.611Z,11.69
2023-01-23T03:27:43.872Z,11.71
2023-01-23T03:30:10.157Z,11.77
2023-01-23T03:32:36.415Z,12.08
2023-01-23T03:35:02.657Z,12.36
2023-01-23T03:37:28.962Z,12.01
2023-01-23T03:39:55.241Z,11.86
2023-01-23T03:42:21.516Z,11.86
2023-01-23T03:44:47.763Z,12.43
2023-01-23T03:47:14.042Z,11.85
2023-01-23T03:49:40.318Z,12.34
2023-01-23T03:52:06.563Z,12.25
2023-01-23T03:54:32.813Z,12.32
2023-01-23T03:56:59.104Z,11.43
2023-01-23T03:59:25.359Z,12.02
2023-01-23T04:01:51.620Z,12.01
2023-01-23T04:04:17.866Z,11.58
2023-01-23T04:06:44.222Z,11.85
2023-01-23T04:09:10.474Z,11.95
2023-01-23T04:11:36.905Z,12.87
2023-01-23T04:14:03.152Z,13.65
2023-01-23T04:16:29.453Z,13.99
2023-01-23T04:18:55.714Z,15.35
2023-01-23T04:21:21.988Z,15.68
2023-01-23T04:23:48.268Z,16.32
2023-01-23T04:26:14.537Z,17.01
2023-01-23T04:28:40.832Z,17.46
2023-01-23T04:31:07.175Z,17.41
2023-01-23T04:33:33.564Z,17.45
2023-01-23T04:35:59.846Z,18.17
2023-01-23T04:38:26.095Z,17.57
2023-01-23T04:40:52.339Z,16.96
2023-01-23T04:43:18.608Z,16.73
2023-01-23T04:45:44.920Z,15.90
2023-01-23T04:48:11.234Z,16.03
2023-01-23T04:50:37.506Z,15.31
2023-01-23T04:53:03.833Z,15.11
2023-01-23T04:55:30.089Z,15.69
2023-01-23T04:57:56.352Z,15.84
2023-01-23T05:00:22.760Z,16.39
2023-01-23T05:02:49.177Z,16.97
2023-01-23T05:05:15.487Z,16.90
2023-01-23T05:07:41.745Z,17.29
2023-01-23T05:10:08.019Z,17.17
2023-01-23T05:12:34.288Z,17.15
2023-01-23T05:15:00.567Z,16.41
2023-01-23T05:17:26.816Z,16.87
2023-01-23T05:19:53.088Z,16.64
2023-01-23T05:22:19.357Z,17.53
2023-01-23T05:24:45.637Z,17.71
2023-01-23T05:27:11.883Z,17.72
2023-01-23T05:29:38.148Z,17.57
2023-01-23T05:32:04.421Z,18.49
2023-01-23T05:34:30.698Z,17.99
2023-01-23T05:36:56.972Z,17.57
2023-01-23T05:39:23.235Z,18.09
2023-01-23T05:41:49.497Z,17.94
2023-01-23T05:44:15.760Z,17.16
2023-01-23T05:46:42.006Z,17.56
2023-01-23T05:49:08.327Z,17.52
2023-01-23T05:51:34.618Z,17.89
2023-01-23T05:54:00.888Z,18.30
2023-01-23T05:56:27.150Z,18.04
2023-01-23T05:58:53.392Z,18.00
2023-01-23T06:01:19.678Z,17.36
2023-01-23T06:03:45.982Z,17.45
2023-01-23T06:06:12.259Z,17.11
2023-01-23T06:08:38.522Z,17.09
2023-01-23T06:11:04.778Z,16.88
2023-01-23T06:13:31.017Z,17.20
2023-01-23T06:15:57.297Z,17.53
2023-01-23T06:18:23.602Z,17.06
2023-01-23T06:20:49.873Z,16.56
2023-01-23T06:23:16.122Z,16.24
2023-01-23T06:25:42.411Z,15.83
2023-01-23T06:28:08.684Z,15.65
2023-01-23T06:30:34.977Z,15.04
2023-01-23T06:33:01.280Z,15.77
2023-01-23T06:35:27.525Z,16.54
2023-01-23T06:37:53.802Z,16.45
2023-01-23T06:40:20.503Z,16.18
2023-01-23T06:42:46.824Z,16.71
2023-01-23T06:45:13.093Z,15.98
2023-01-23T06:47:39.357Z,16.03
2023-01-23T06:50:05.631Z,16.63
2023-01-23T06:52:31.888Z,16.83
2023-01-23T06:54:58.141Z,17.10
2023-01-23T06:57:24.388Z,17.12
2023-01-23T06:59:50.660Z,16.98
2023-01-23T07:02:16.938Z,16.72
2023-01-23T07:04:43.222Z,17.17
2023-01-23T07:07:09.490Z,17.20
2023-01-23T07:09:35.789Z,17.18
2023-01-23T07:12:02.282Z,16.85
2023-01-23T07:14:28.541Z,17.35
2023-01-23T07:16:54.805Z,17.45
2023-01-23T07:19:21.090Z,17.63
2023-01-23T07:21:47.336Z,16.72
2023-01-23T07:24:13.596Z,16.45
2023-01-23T07:26:39.865Z,16.01
2023-01-23T07:29:06.147Z,15.86
2023-01-23T07:31:32.477Z,15.93
2023-01-23T07:33:58.785Z,15.82
2023-01-23T07:36:25.065Z,16.55
2023-01-23T07:38:51.342Z,16.51
2023-01-23T07:41:17.636Z,16.53
2023-01-23T07:43:43.903Z,16.57
2023-01-23T07:46:10.219Z,16.48
2023-01-23T07:48:36.492Z,16.89
2023-01-23T07:51:02.807Z,17.10
2023-01-23T07:53:29.074Z,17.32
2023-01-23T07:55:55.327Z,17.65
2023-01-23T07:58:21.609Z,16.85
2023-01-23T08:00:47.900Z,15.87
2023-01-23T08:03:14.184Z,15.50
2023-01-23T08:05:42.234Z,15.46
2023-01-23T08:08:14.000Z,15.16
2023-01-23T08:10:40.366Z,14.40
2023-01-23T08:13:06.718Z,14.84
2023-01-23T08:15:32.991Z,15.07
2023-01-23T08:17:59.290Z,15.09
2023-01-23T08:20:25.585Z,14.66
2023-01-23T08:22:51.848Z,15.11
2023-01-23T08:25:18.121Z,15.40
2023-01-23T08:27:44.393Z,15.10
2023-01-23T08:30:10.681Z,15.47
2023-01-23T08:32:36.953Z,14.80
2023-01-23T08:35:03.234Z,15.85
2023-01-23T08:37:29.506Z,15.57
2023-01-23T08:39:55.749Z,15.70
2023-01-23T08:42:22.002Z,16.13
2023-01-23T08:44:48.275Z,15.90
2023-01-23T08:47:14.531Z,15.59
2023-01-23T08:49:40.793Z,16.69
2023-01-23T08:52:07.064Z,17.02
2023-01-23T08:54:33.323Z,16.69
2023-01-23T08:56:59.605Z,16.29
2023-01-23T08:59:25.868Z,15.78
2023-01-23T09:01:52.205Z,16.50
2023-01-23T09:04:18.494Z,16.10
2023-01-23T09:06:44.745Z,16.85
2023-01-23T09:09:10.994Z,16.69
2023-01-23T09:11:37.255Z,16.42
2023-01-23T09:14:03.584Z,16.66
2023-01-23T09:16:29.867Z,16.33
2023-01-23T09:18:56.139Z,15.56
2023-01-23T09:21:22.394Z,15.04
2023-01-23T09:23:48.642Z,14.26
2023-01-23T09:26:14.904Z,14.84
2023-01-23T09:28:41.175Z,15.09
2023-01-23T09:31:07.446Z,15.01
2023-01-23T09:33:33.718Z,15.46
2023-01-23T09:35:59.992Z,15.14
2023-01-23T09:38:26.253Z,15.06
2023-01-23T09:40:52.529Z,15.09
2023-01-23T09:43:18.780Z,15.46
2023-01-23T09:45:45.053Z,15.46
2023-01-23T09:48:11.348Z,15.07
2023-01-23T09:50:37.597Z,15.66
2023-01-23T09:53:03.847Z,15.03
2023-01-23T09:55:30.107Z,14.78
2023-01-23T09:57:56.413Z,15.32
2023-01-23T10:00:22.965Z,14.54
2023-01-23T10:02:49.551Z,15.49
2023-01-23T10:05:15.848Z,16.11
2023-01-23T10:07:42.131Z,16.24
2023-01-23T10:10:08.414Z,16.28
2023-01-23T10:12:34.739Z,17.71
2023-01-23T10:15:01.011Z,16.64
2023-01-23T10:17:27.336Z,16.81
2023-01-23T10:19:53.600Z,16.62
2023-01-23T10:22:23.227Z,16.48
2023-01-23T10:24:49.603Z,16.11
2023-01-23T10:27:15.869Z,16.59
2023-01-23T10:29:42.146Z,16.90
2023-01-23T10:32:08.429Z,16.33
2023-01-23T10:34:34.789Z,17.00
2023-01-23T10:37:01.074Z,16.82
2023-01-23T10:39:27.334Z,16.91
2023-01-23T10:42:01.046Z,16.54
2023-01-23T10:44:28.168Z,16.94
2023-01-23T10:46:54.422Z,17.16
2023-01-23T10:49:20.704Z,17.47
2023-01-23T10:51:46.970Z,17.57
2023-01-23T10:54:29.562Z,17.26
2023-01-23T10:56:57.359Z,17.73
2023-01-23T10:59:23.629Z,18.44
2023-01-23T11:01:57.425Z,17.73
2023-01-23T11:04:24.081Z,18.62
2023-01-23T11:06:50.330Z,18.27
2023-01-23T11:09:16.604Z,18.19
2023-01-23T11:11:42.917Z,18.08
2023-01-23T11:14:09.177Z,17.91
2023-01-23T11:16:35.487Z,17.88
2023-01-23T11:19:01.779Z,18.10
2023-01-23T11:21:28.034Z,17.75
2023-01-23T11:23:54.309Z,17.70
2023-01-23T11:26:20.562Z,16.75
2023-01-23T11:28:46.836Z,17.19
2023-01-23T11:31:15.779Z,16.75
2023-01-23T11:33:42.384Z,17.23
2023-01-23T11:36:08.655Z,16.76
2023-01-23T11:38:35.929Z,16.10
2023-01-23T11:41:03.833Z,16.46
2023-01-23T11:43:30.111Z,17.11
2023-01-23T11:45:56.399Z,16.90
2023-01-23T11:48:22.682Z,16.89
2023-01-23T11:50:56.337Z,17.50
2023-01-23T11:53:33.528Z,17.65
2023-01-23T11:56:07.288Z,17.43
2023-01-23T11:58:39.669Z,17.79
2023-01-23T12:01:11.812Z,17.90
2023-01-23T12:03:38.151Z,17.93
2023-01-23T12:06:19.236Z,17.51
2023-01-23T12:08:46.152Z,17.79
2023-01-23T12:11:12.440Z,17.51
2023-01-23T12:13:38.705Z,17.44
2023-01-23T12:16:05.008Z,17.36
2023-01-23T12:18:31.319Z,17.20
2023-01-23T12:20:57.569Z,17.16
2023-01-23T12:23:23.845Z,17.18
2023-01-23T12:25:50.120Z,17.49
2023-01-23T12:28:17.980Z,18.23
2023-01-23T12:30:44.421Z,17.57
2023-01-23T12:33:10.691Z,18.16
2023-01-23T12:35:36.972Z,18.68
2023-01-23T12:38:03.247Z,19.15
2023-01-23T12:40:29.516Z,18.91
2023-01-23T12:42:56.823Z,19.46
2023-01-23T12:45:23.601Z,19.20
2023-01-23T12:47:50.197Z,20.18
2023-01-23T12:50:16.481Z,20.31
2023-01-23T12:52:43.141Z,19.32
2023-01-23T12:55:09.423Z,19.99
2023-01-23T12:57:46.131Z,19.66
2023-01-23T13:00:22.238Z,19.80
2023-01-23T13:02:48.690Z,20.24
2023-01-23T13:05:14.952Z,19.68
2023-01-23T13:07:41.209Z,20.16
2023-01-23T13:10:07.485Z,20.53
2023-01-23T13:12:33.728Z,20.41
2023-01-23T13:15:13.535Z,20.39
2023-01-23T13:17:40.705Z,20.86
2023-01-23T13:20:07.022Z,20.40
2023-01-23T13:22:33.379Z,21.74
2023-01-23T13:24:59.699Z,22.54
2023-01-23T13:27:26.168Z,21.69
2023-01-23T13:29:52.478Z,21.88
2023-01-23T13:32:18.759Z,22.32
2023-01-23T13:34:45.091Z,21.13
2023-01-23T13:37:11.378Z,21.66
2023-01-23T13:39:38.198Z,22.44
2023-01-23T13:42:05.273Z,22.99
2023-01-23T13:44:42.230Z,22.29
2023-01-23T14:24:45.339Z,22.73
2023-01-23T14:27:13.140Z,23.09
2023-01-23T14:29:39.479Z,23.73
2023-01-23T14:32:05.776Z,23.81
2023-01-23T14:34:32.096Z,24.40
2023-01-23T14:36:58.416Z,23.64
2023-01-23T14:39:24.774Z,24.16
2023-01-23T14:41:51.029Z,24.11
2023-01-23T14:44:17.346Z,24.01
2023-01-23T14:46:43.607Z,23.40
2023-01-23T14:49:09.879Z,24.44
2023-01-23T14:51:36.192Z,24.16
2023-01-23T14:54:02.445Z,23.59
2023-01-23T14:56:28.718Z,24.60
2023-01-23T14:58:55.036Z,24.29
2023-01-23T15:01:21.346Z,24.44
2023-01-23T15:03:47.634Z,24.41
2023-01-23T15:06:13.891Z,24.57
2023-01-23T15:08:40.144Z,24.76
2023-01-23T15:11:06.423Z,25.06
2023-01-23T15:13:32.681Z,25.02
2023-01-23T15:15:58.944Z,24.04
2023-01-23T15:18:25.211Z,25.26
2023-01-23T15:20:51.476Z,25.29
2023-01-23T15:23:17.735Z,24.39
2023-01-23T15:25:45.273Z,24.34
2023-01-23T15:28:12.575Z,24.29
2023-01-23T15:30:38.910Z,24.41
2023-01-23T15:33:05.191Z,23.83
2023-01-23T15:35:31.462Z,24.21
2023-01-23T15:37:57.711Z,24.01
2023-01-23T15:40:24.059Z,24.10
2023-01-23T15:42:50.314Z,23.92
2023-01-23T15:45:16.577Z,24.15
2023-01-23T15:47:42.878Z,23.33
2023-01-23T15:50:09.137Z,23.47
2023-01-23T15:52:35.397Z,23.22
2023-01-23T15:55:01.671Z,23.31
2023-01-23T15:57:27.928Z,23.05
2023-01-23T15:59:54.192Z,22.97
2023-01-23T16:02:30.740Z,23.56
2023-01-23T16:04:58.117Z,23.00
2023-01-23T16:07:24.396Z,23.32
2023-01-23T16:09:50.676Z,22.96
2023-01-23T16:12:16.955Z,23.51
2023-01-23T16:14:43.225Z,23.35
2023-01-23T16:17:16.839Z,23.03
2023-01-23T16:19:43.578Z,24.37
2023-01-23T16:22:09.825Z,23.98
2023-01-23T16:24:36.190Z,23.53
2023-01-23T16:27:02.545Z,24.21
2023-01-23T16:29:28.806Z,23.75
2023-01-23T16:31:55.379Z,23.38
2023-01-23T16:34:21.689Z,24.03
2023-01-23T16:36:47.967Z,24.60
2023-01-23T16:39:14.250Z,24.72
2023-01-23T16:41:40.598Z,24.00
2023-01-23T16:44:06.856Z,24.46
2023-01-23T16:46:33.151Z,23.65
2023-01-23T16:48:59.465Z,23.09
2023-01-23T16:51:25.744Z,23.98
2023-01-23T16:53:52.031Z,23.91
2023-01-23T16:56:18.291Z,24.29
2023-01-23T16:58:44.553Z,24.19
2023-01-23T17:01:10.844Z,24.69
2023-01-23T17:03:37.146Z,24.49
2023-01-23T17:06:03.402Z,24.65
2023-01-23T17:08:29.651Z,24.76
2023-01-23T17:10:56.008Z,24.53
2023-01-23T17:13:22.276Z,24.47
2023-01-23T17:15:48.553Z,25.20
2023-01-23T17:18:14.823Z,25.14
2023-01-23T17:20:41.114Z,24.20
2023-01-23T17:23:07.368Z,24.44
2023-01-23T17:25:34.171Z,25.54
2023-01-23T17:28:12.495Z,24.94
2023-01-23T17:30:39.493Z,24.44
2023-01-23T17:33:05.939Z,25.65
2023-01-23T17:35:32.373Z,25.49
2023-01-23T17:37:58.663Z,24.82
2023-01-23T17:40:24.957Z,25.36
2023-01-23T17:42:51.218Z,25.02
2023-01-23T17:45:17.472Z,24.57
2023-01-23T17:47:43.774Z,26.09
2023-01-23T17:50:10.201Z,25.78
2023-01-23T17:52:36.473Z,25.26
2023-01-23T17:55:02.744Z,25.33
2023-01-23T17:57:29.020Z,25.10
2023-01-23T17:59:56.543Z,25.06
2023-01-23T18:02:23.054Z,25.67
2023-01-23T18:04:49.322Z,24.93
2023-01-23T18:07:15.800Z,25.19
2023-01-23T18:09:42.084Z,26.04
2023-01-23T18:12:08.332Z,25.30
2023-01-23T18:14:34.610Z,26.02
2023-01-23T18:17:00.884Z,26.05
2023-01-23T18:19:27.137Z,25.11
2023-01-23T18:21:53.413Z,26.12
2023-01-23T18:24:19.752Z,27.00
2023-01-23T18:26:46.053Z,26.08
2023-01-23T18:29:12.297Z,26.25
2023-01-23T18:31:38.615Z,25.93
2023-01-23T18:34:04.962Z,25.82
2023-01-23T18:36:31.230Z,25.96
2023-01-23T18:38:57.502Z,26.60
2023-01-23T18:41:23.780Z,26.31
2023-01-23T18:43:50.053Z,26.90
2023-01-23T18:46:16.360Z,27.34
2023-01-23T18:48:42.692Z,26.82
2023-01-23T18:51:08.960Z,26.77
2023-01-23T18:53:35.274Z,26.97
2023-01-23T18:56:01.558Z,26.70
2023-01-23T18:58:28.729Z,27.27
2023-01-23T19:00:55.607Z,27.40
2023-01-23T19:03:21.885Z,27.86
2023-01-23T19:05:48.155Z,27.49
2023-01-23T19:08:14.411Z,28.19
2023-01-23T19:10:48.392Z,27.28
2023-01-23T19:13:15.310Z,27.73
2023-01-23T19:15:41.598Z,27.43
2023-01-23T19:18:07.868Z,28.16
2023-01-23T19:20:34.129Z,27.06
2023-01-23T19:23:00.376Z,26.84
2023-01-23T19:25:26.624Z,27.18
2023-01-23T19:27:52.932Z,27.25
2023-01-23T19:30:19.410Z,27.32
2023-01-23T19:32:45.845Z,26.76
2023-01-23T19:35:14.301Z,27.65
2023-01-23T19:37:40.788Z,27.60
2023-01-23T19:40:07.054Z,28.55
2023-01-23T19:42:44.887Z,27.97
2023-01-23T19:45:16.271Z,27.06
2023-01-23T19:47:42.534Z,27.36
2023-01-23T19:50:08.803Z,27.73
2023-01-23T19:52:35.072Z,28.39
2023-01-23T19:55:01.331Z,27.49
2023-01-23T19:57:29.611Z,27.72
2023-01-23T19:59:56.147Z,26.90
2023-01-23T20:02:25.201Z,27.61
2023-01-23T20:04:51.723Z,27.49
2023-01-23T20:07:18.010Z,27.67
2023-01-23T20:09:44.276Z,28.53
2023-01-23T20:12:10.543Z,28.45
2023-01-23T20:14:36.864Z,27.52
2023-01-23T20:17:03.156Z,27.36
2023-01-23T20:19:29.448Z,27.66
2023-01-23T20:21:55.796Z,27.86
2023-01-23T20:24:22.130Z,27.97
2023-01-23T20:26:48.389Z,28.18
2023-01-23T20:29:14.681Z,28.35
2023-01-23T20:31:40.956Z,28.41
2023-01-23T20:34:07.258Z,28.59
2023-01-23T20:36:33.532Z,27.93
2023-01-23T20:38:59.786Z,27.80
2023-01-23T20:41:26.067Z,27.71
2023-01-23T20:43:52.351Z,26.82
2023-01-23T20:46:18.673Z,28.42
2023-01-23T20:48:44.963Z,27.46
2023-01-23T20:51:11.299Z,27.14
2023-01-23T20:53:37.572Z,28.06
2023-01-23T20:56:03.828Z,27.98
2023-01-23T20:58:30.090Z,28.21
2023-01-23T21:00:56.403Z,27.60
2023-01-23T21:03:22.796Z,27.98
2023-01-23T21:05:49.048Z,27.13
2023-01-23T21:08:15.319Z,28.12
2023-01-23T21:10:41.565Z,28.20
2023-01-23T21:13:07.819Z,28.20
2023-01-23T21:15:34.143Z,27.15
2023-01-23T21:18:00.461Z,27.65
2023-01-23T21:20:26.723Z,26.66
2023-01-23T21:22:52.989Z,28.89
2023-01-23T21:25:19.731Z,28.01
2023-01-23T21:27:46.256Z,27.92
2023-01-23T21:30:12.519Z,27.32
2023-01-23T21:32:38.766Z,27.55
2023-01-23T21:35:05.043Z,27.79
2023-01-23T21:37:31.293Z,27.77
2023-01-23T21:39:57.540Z,27.89
2023-01-23T21:42:23.803Z,28.57
2023-01-23T21:44:50.054Z,28.27
2023-01-23T21:47:16.320Z,28.22
2023-01-23T21:49:42.583Z,28.92
2023-01-23T21:52:08.823Z,27.19
2023-01-23T21:54:35.112Z,27.88
2023-01-23T21:57:01.375Z,28.17
2023-01-23T21:59:27.639Z,27.77
2023-01-23T22:01:53.946Z,27.94
2023-01-23T22:04:20.349Z,27.69
2023-01-23T22:06:46.615Z,27.33
2023-01-23T22:09:12.876Z,27.57
2023-01-23T22:11:39.154Z,26.29
2023-01-23T22:14:05.401Z,26.94
2023-01-23T22:16:47.473Z,26.93
2023-01-23T22:19:14.532Z,27.06
2023-01-23T22:21:40.823Z,26.96
2023-01-23T22:24:07.120Z,27.72
2023-01-23T22:26:33.377Z,26.41
2023-01-23T22:28:59.651Z,26.21
2023-01-23T22:31:25.965Z,26.34
2023-01-23T22:33:52.301Z,27.02
2023-01-23T22:36:18.572Z,25.87
2023-01-23T22:38:44.919Z,26.28
2023-01-23T22:41:11.189Z,25.82
2023-01-23T22:43:37.461Z,26.13
2023-01-23T22:46:03.718Z,26.63
2023-01-23T22:48:29.985Z,26.28
2023-01-23T22:50:56.262Z,25.30
2023-01-23T22:53:22.524Z,25.58
2023-01-23T22:55:48.789Z,25.46
2023-01-23T22:58:15.044Z,25.48
2023-01-23T23:00:41.310Z,25.82
2023-01-23T23:03:07.571Z,26.71
2023-01-23T23:05:33.857Z,25.85
2023-01-23T23:08:00.113Z,25.67
2023-01-23T23:10:26.372Z,25.72
2023-01-23T23:12:52.624Z,25.84
2023-01-23T23:15:19.211Z,25.89
2023-01-23T23:17:45.650Z,25.10
2023-01-23T23:20:11.975Z,25.56
2023-01-23T23:22:38.238Z,24.75
2023-01-23T23:25:04.503Z,24.47
2023-01-23T23:27:30.753Z,25.22
2023-01-23T23:29:57.021Z,25.39
2023-01-23T23:32:23.370Z,24.67
2023-01-23T23:34:49.677Z,24.34
2023-01-23T23:37:15.942Z,24.38
2023-01-23T23:39:42.215Z,25.15
2023-01-23T23:42:08.500Z,25.34
2023-01-23T23:44:34.787Z,25.19
2023-01-23T23:47:01.056Z,25.23
2023-01-23T23:49:27.308Z,25.57
2023-01-23T23:51:53.591Z,25.41
2023-01-23T23:54:19.876Z,25.24
2023-01-23T23:56:46.180Z,24.85
2023-01-23T23:59:12.440Z,25.08
